首页
METAR-TAF:

METAR-TAF

机场 :

里加国际机场

里加, 拉脱维亚

纬度: 56-55N, 经度: 023-58E, 海拔: 10米

当前天气观测

该预报发布于20分钟前的11:20 UTC
风速3节,风向多变
温度 11°C
湿度 66%
气压 1015 hPa
能见度10公里或以上
散云层高于2700英尺, 积雨云.
阴天层高于4800英尺

METAR: EVRA 191120Z VRB03KT 9999 SCT027CB OVC048 11/05 Q1015 NOSIG

时间: 14:40 (11:40 UTC)

预报

该预报发布于40分钟前的11:00 UTC
预报有效从19日的 12点(UTC)到 20日的 12点(UTC)
风速7节,风向西北
能见度10公里或以上
多云层高于1500英尺, 积雨云.
多云层高于3000英尺
短暂存在
从 19日的 12点(UTC)到 19日的 21点(UTC)
能見度: 2500
多云层高于1000英尺
多云层高于1500英尺, 积雨云.
多云层高于3000英尺
阵雨
几率 40% :
短暂存在
从 19日的 12点(UTC)到 19日的 21点(UTC)
雷暴

TAF: EVRA 191100Z 1912/2012 31007KT 9999 BKN015CB BKN030 TEMPO 1912/1921 2500 SHRA BKN010 BKN015CB BKN030 PROB40 TEMPO 1912/1921 TS

超过4000个机场的气象观测和天气预报(METAR&TAF报告)。

可查询的气象台以黄色和红色小点在地图上表示。

将鼠标移到小点上方,可查看气象台名称。

然后点击查看天气观测和预报。

如需切换地图:点击带黑十字的绿色按钮放大地图;点击带横线的绿色按钮缩小地图;或者点击绿色箭头查看邻近地区的地图。


METAR-TAF: